Time;durP1;ratioP1;P1;durP2;ratioP2;P2;SDS_P1;SDS_P2;PMS_P1;PMS_P2;Temp;Humidity;BMP_temperature;BMP_pressure;BME280_temperature;BME280_humidity;BME280_pressure;Samples;Min_cycle;Max_cycle;Signal;HPM_P1;HPM_P2
2020/12/18 00:01:54;;;;;;;50.25;20.13;;;;;;;;;;5013773;28;20053;-79
2020/12/18 00:04:22;;;;;;;47.78;20.42;;;;;;;;;;5014686;28;20085;-80
2020/12/18 00:06:48;;;;;;;46.80;19.23;;;;;;;;;;5014143;28;20447;-79
2020/12/18 00:09:15;;;;;;;46.20;21.38;;;;;;;;;;5013615;28;20049;-79
2020/12/18 00:11:41;;;;;;;52.72;19.65;;;;;;;;;;5012918;28;20161;-80
2020/12/18 00:14:08;;;;;;;43.00;18.85;;;;;;;;;;5013393;28;20081;-80
2020/12/18 00:16:35;;;;;;;45.00;20.33;;;;;;;;;;5014174;28;20137;-80
2020/12/18 00:19:04;;;;;;;49.75;20.70;;;;;;;;;;5014460;28;20499;-79
2020/12/18 00:21:31;;;;;;;48.35;19.10;;;;;;;;;;5012763;28;20049;-80
2020/12/18 00:23:57;;;;;;;47.63;20.08;;;;;;;;;;5012607;28;20506;-80
2020/12/18 00:26:24;;;;;;;44.53;18.30;;;;;;;;;;5011485;28;20120;-80
2020/12/18 00:28:50;;;;;;;52.22;18.83;;;;;;;;;;5011624;28;20197;-80
2020/12/18 00:31:17;;;;;;;40.17;18.45;;;;;;;;;;5014256;28;20072;-80
2020/12/18 00:33:44;;;;;;;43.78;18.23;;;;;;;;;;5013068;28;20042;-80
2020/12/18 00:36:11;;;;;;;42.50;19.98;;;;;;;;;;5013186;28;20049;-80
2020/12/18 00:38:38;;;;;;;42.15;19.00;;;;;;;;;;5014066;28;20498;-80
2020/12/18 00:41:05;;;;;;;42.97;19.23;;;;;;;;;;5012535;28;20574;-80
2020/12/18 00:43:31;;;;;;;42.88;17.40;;;;;;;;;;5012353;28;20472;-80
2020/12/18 00:45:59;;;;;;;40.08;18.55;;;;;;;;;;5012662;28;20081;-80
2020/12/18 00:48:26;;;;;;;43.78;19.58;;;;;;;;;;5013844;28;20078;-81
2020/12/18 00:51:07;;;;;;;40.80;17.90;;;;;;;;;;5012422;28;20049;-80
2020/12/18 00:53:37;;;;;;;44.53;19.20;;;;;;;;;;5011884;28;20049;-81
2020/12/18 00:56:07;;;;;;;40.42;17.67;;;;;;;;;;5012607;28;20050;-80
2020/12/18 00:58:34;;;;;;;45.65;19.60;;;;;;;;;;5012601;28;20550;-80
2020/12/18 01:01:05;;;;;;;44.50;19.05;;;;;;;;;;5012791;28;20077;-80
2020/12/18 01:03:31;;;;;;;41.33;17.73;;;;;;;;;;5012540;28;20143;-80
2020/12/18 01:06:01;;;;;;;48.97;18.80;;;;;;;;;;5012919;28;20208;-80
2020/12/18 01:08:27;;;;;;;46.00;18.98;;;;;;;;;;5014340;28;20114;-81
2020/12/18 01:11:00;;;;;;;43.22;17.73;;;;;;;;;;5012706;28;20112;-80
2020/12/18 01:13:27;;;;;;;44.58;18.67;;;;;;;;;;5013059;28;20081;-80
2020/12/18 01:15:54;;;;;;;40.70;17.50;;;;;;;;;;5012088;28;20049;-80
2020/12/18 01:18:25;;;;;;;46.60;18.75;;;;;;;;;;5011812;28;20133;-80
2020/12/18 01:20:52;;;;;;;44.25;18.85;;;;;;;;;;5013324;28;20084;-80
2020/12/18 01:23:19;;;;;;;50.72;18.70;;;;;;;;;;5011601;28;20050;-80
2020/12/18 01:25:49;;;;;;;39.47;18.08;;;;;;;;;;5009750;28;20058;-80
2020/12/18 01:28:16;;;;;;;42.58;20.05;;;;;;;;;;5008473;28;20089;-80
2020/12/18 01:30:44;;;;;;;40.58;18.38;;;;;;;;;;5007606;28;20129;-80
2020/12/18 01:33:10;;;;;;;43.90;16.80;;;;;;;;;;5006534;28;20145;-79
2020/12/18 01:35:38;;;;;;;40.60;18.48;;;;;;;;;;5007468;28;20452;-80
2020/12/18 01:38:04;;;;;;;50.95;16.85;;;;;;;;;;5007487;28;20232;-80
2020/12/18 01:40:31;;;;;;;45.92;18.35;;;;;;;;;;5007160;28;20414;-80
2020/12/18 01:42:59;;;;;;;39.95;17.17;;;;;;;;;;5005985;28;20049;-80
2020/12/18 01:45:26;;;;;;;41.05;17.52;;;;;;;;;;5008878;28;20119;-80
2020/12/18 01:47:53;;;;;;;43.47;17.88;;;;;;;;;;5012231;28;20088;-80
2020/12/18 01:50:21;;;;;;;35.78;16.75;;;;;;;;;;5012291;28;20073;-80
2020/12/18 01:52:48;;;;;;;38.78;17.02;;;;;;;;;;5012629;28;20121;-80
2020/12/18 01:55:16;;;;;;;40.22;17.40;;;;;;;;;;5011519;28;20549;-80
2020/12/18 01:57:43;;;;;;;39.28;16.52;;;;;;;;;;5011232;28;20136;-80
2020/12/18 02:00:10;;;;;;;43.75;17.52;;;;;;;;;;5012556;28;20101;-80
2020/12/18 02:02:37;;;;;;;39.22;16.55;;;;;;;;;;5012427;28;20050;-80
2020/12/18 02:05:04;;;;;;;35.65;15.63;;;;;;;;;;5011970;28;20137;-79
2020/12/18 02:07:30;;;;;;;36.63;16.60;;;;;;;;;;5010846;28;20157;-80
2020/12/18 02:09:57;;;;;;;33.25;16.42;;;;;;;;;;5012139;28;20133;-80
2020/12/18 02:12:24;;;;;;;44.40;16.63;;;;;;;;;;5010937;28;20104;-80
2020/12/18 02:14:51;;;;;;;42.60;16.52;;;;;;;;;;5012629;28;20129;-80
2020/12/18 02:17:19;;;;;;;37.40;17.60;;;;;;;;;;5011161;28;20105;-80
2020/12/18 02:19:50;;;;;;;38.00;16.88;;;;;;;;;;5011031;28;20052;-81
2020/12/18 02:22:19;;;;;;;33.03;15.80;;;;;;;;;;5010810;28;20138;-81
2020/12/18 02:24:51;;;;;;;42.65;17.27;;;;;;;;;;5010874;28;20042;-80
2020/12/18 02:27:18;;;;;;;39.60;16.77;;;;;;;;;;5012024;28;20085;-79
2020/12/18 02:29:45;;;;;;;37.80;16.20;;;;;;;;;;5010778;28;20495;-80
2020/12/18 02:32:12;;;;;;;38.58;15.95;;;;;;;;;;5011956;28;20081;-80
2020/12/18 02:34:38;;;;;;;42.65;16.42;;;;;;;;;;5010762;28;20100;-80
2020/12/18 02:37:05;;;;;;;42.75;16.27;;;;;;;;;;5010542;28;20048;-80
2020/12/18 02:39:33;;;;;;;34.03;16.17;;;;;;;;;;5011612;28;20073;-80
2020/12/18 02:42:00;;;;;;;39.67;17.20;;;;;;;;;;5010830;28;20046;-80
2020/12/18 02:44:27;;;;;;;44.40;15.95;;;;;;;;;;5011886;28;20078;-80
2020/12/18 02:46:53;;;;;;;49.63;15.95;;;;;;;;;;5010552;28;20082;-79
2020/12/18 02:49:20;;;;;;;42.25;16.45;;;;;;;;;;5010285;28;20129;-79
2020/12/18 02:51:47;;;;;;;45.40;16.63;;;;;;;;;;5010830;28;20108;-80
2020/12/18 02:54:13;;;;;;;35.60;15.77;;;;;;;;;;5009642;28;20096;-79
2020/12/18 02:56:40;;;;;;;38.30;17.77;;;;;;;;;;5010548;28;20133;-80
2020/12/18 02:59:07;;;;;;;42.05;17.90;;;;;;;;;;5011270;28;20145;-79
2020/12/18 03:01:34;;;;;;;46.70;17.85;;;;;;;;;;5010956;28;20136;-80
2020/12/18 03:04:00;;;;;;;38.78;16.45;;;;;;;;;;5010239;28;20526;-79
2020/12/18 03:06:27;;;;;;;40.38;16.98;;;;;;;;;;5009871;28;20169;-79
2020/12/18 03:08:54;;;;;;;44.33;16.88;;;;;;;;;;5010941;28;20068;-79
2020/12/18 03:11:20;;;;;;;37.30;16.88;;;;;;;;;;5009525;28;20046;-79
2020/12/18 03:13:47;;;;;;;38.17;17.13;;;;;;;;;;5010992;28;20050;-79
2020/12/18 03:16:15;;;;;;;42.40;16.58;;;;;;;;;;5011166;28;20133;-79
2020/12/18 03:18:42;;;;;;;32.00;16.85;;;;;;;;;;5015415;28;20054;-79
2020/12/18 03:21:09;;;;;;;48.88;15.82;;;;;;;;;;5014267;28;20771;-79
2020/12/18 03:23:36;;;;;;;37.10;15.63;;;;;;;;;;5013947;28;20054;-79
2020/12/18 03:26:02;;;;;;;42.38;16.23;;;;;;;;;;5013610;28;20089;-78
2020/12/18 03:28:29;;;;;;;47.92;19.20;;;;;;;;;;5013492;28;20139;-78
2020/12/18 03:30:58;;;;;;;38.15;15.65;;;;;;;;;;5013436;28;20054;-78
2020/12/18 03:33:25;;;;;;;35.45;16.92;;;;;;;;;;5012576;28;20446;-78
2020/12/18 03:35:51;;;;;;;35.42;16.13;;;;;;;;;;5011473;28;20136;-79
2020/12/18 03:38:20;;;;;;;39.58;14.90;;;;;;;;;;5011175;28;20525;-78
2020/12/18 03:40:47;;;;;;;38.08;15.85;;;;;;;;;;5012419;28;20462;-78
2020/12/18 03:43:14;;;;;;;39.53;16.60;;;;;;;;;;5011875;28;20054;-78
2020/12/18 03:45:41;;;;;;;44.53;17.08;;;;;;;;;;5013467;28;20129;-78
2020/12/18 03:48:08;;;;;;;35.75;15.73;;;;;;;;;;5012863;28;20096;-78
2020/12/18 03:50:34;;;;;;;39.90;15.65;;;;;;;;;;5013605;28;20049;-78
2020/12/18 03:53:03;;;;;;;38.72;16.08;;;;;;;;;;5011808;28;20096;-78
2020/12/18 03:55:30;;;;;;;38.83;16.35;;;;;;;;;;5013198;28;20684;-78
2020/12/18 03:57:57;;;;;;;42.65;15.38;;;;;;;;;;5011649;28;20509;-78
2020/12/18 04:00:23;;;;;;;33.30;15.38;;;;;;;;;;5012822;28;20084;-78
2020/12/18 04:02:50;;;;;;;41.38;16.10;;;;;;;;;;5011120;28;20137;-78
2020/12/18 04:05:17;;;;;;;39.00;16.58;;;;;;;;;;5012989;28;20082;-78
2020/12/18 04:07:43;;;;;;;38.05;15.70;;;;;;;;;;5011586;28;20084;-78
2020/12/18 04:10:10;;;;;;;39.20;16.77;;;;;;;;;;5012684;28;20050;-78
2020/12/18 04:12:37;;;;;;;33.53;15.02;;;;;;;;;;5011455;28;20046;-78
2020/12/18 04:15:03;;;;;;;33.40;14.82;;;;;;;;;;5011106;28;20460;-78
2020/12/18 04:17:30;;;;;;;37.25;15.70;;;;;;;;;;5011433;28;20161;-78
2020/12/18 04:19:56;;;;;;;39.15;16.65;;;;;;;;;;5009977;28;20133;-78
2020/12/18 04:22:23;;;;;;;43.95;17.55;;;;;;;;;;5011738;28;20121;-78
2020/12/18 04:24:50;;;;;;;38.38;15.73;;;;;;;;;;5012187;28;20041;-78
2020/12/18 04:27:16;;;;;;;43.88;16.73;;;;;;;;;;5012273;28;20489;-78
2020/12/18 04:29:43;;;;;;;46.47;17.52;;;;;;;;;;5012354;28;20096;-78
2020/12/18 04:32:10;;;;;;;42.00;16.25;;;;;;;;;;5011857;28;20096;-78
2020/12/18 04:34:36;;;;;;;41.33;17.60;;;;;;;;;;5010827;28;20129;-78
2020/12/18 04:37:03;;;;;;;36.03;15.90;;;;;;;;;;5012307;28;20045;-78
2020/12/18 04:39:30;;;;;;;48.33;17.30;;;;;;;;;;5011921;28;20053;-78
2020/12/18 04:41:57;;;;;;;37.95;16.77;;;;;;;;;;5012251;28;20046;-78
2020/12/18 04:44:24;;;;;;;41.45;17.05;;;;;;;;;;5011766;28;20085;-78
2020/12/18 04:46:51;;;;;;;42.90;16.08;;;;;;;;;;5010662;28;20135;-78
2020/12/18 04:49:19;;;;;;;38.10;17.17;;;;;;;;;;5010727;28;20129;-78
2020/12/18 04:51:46;;;;;;;38.00;16.50;;;;;;;;;;5011621;28;20062;-78
2020/12/18 04:54:13;;;;;;;41.80;16.45;;;;;;;;;;5012367;28;20491;-78
2020/12/18 04:56:40;;;;;;;35.58;15.77;;;;;;;;;;5011465;28;20124;-78
2020/12/18 04:59:07;;;;;;;32.22;15.93;;;;;;;;;;5011633;28;20137;-78
2020/12/18 05:01:34;;;;;;;35.00;15.70;;;;;;;;;;5010293;28;20132;-78
2020/12/18 05:04:02;;;;;;;45.95;17.92;;;;;;;;;;5011788;28;20151;-78
2020/12/18 05:06:29;;;;;;;39.55;16.98;;;;;;;;;;5009609;28;20137;-78
2020/12/18 05:08:55;;;;;;;44.28;18.05;;;;;;;;;;5010690;28;20053;-79
2020/12/18 05:11:24;;;;;;;33.83;15.80;;;;;;;;;;5011526;28;20140;-79
2020/12/18 05:13:52;;;;;;;41.22;16.92;;;;;;;;;;5012003;28;20121;-79
2020/12/18 05:16:20;;;;;;;37.25;16.90;;;;;;;;;;5012062;28;20054;-79
2020/12/18 05:18:47;;;;;;;43.13;17.67;;;;;;;;;;5012092;28;20470;-79
2020/12/18 05:21:14;;;;;;;45.55;16.08;;;;;;;;;;5011836;28;20058;-79
2020/12/18 05:23:58;;;;;;;37.80;16.40;;;;;;;;;;5010820;28;20056;-78
2020/12/18 05:26:29;;;;;;;37.30;16.20;;;;;;;;;;5011119;28;20046;-78
2020/12/18 05:29:03;;;;;;;40.78;17.08;;;;;;;;;;5011336;28;20503;-79
2020/12/18 05:31:34;;;;;;;34.87;15.47;;;;;;;;;;5010905;28;20045;-79
2020/12/18 05:34:01;;;;;;;43.13;17.25;;;;;;;;;;5012109;28;20053;-79
2020/12/18 05:36:28;;;;;;;43.53;17.77;;;;;;;;;;5009816;28;20052;-79
2020/12/18 05:38:55;;;;;;;36.95;16.48;;;;;;;;;;5009374;28;20085;-79
2020/12/18 05:41:23;;;;;;;38.90;16.80;;;;;;;;;;5009176;28;20136;-78
2020/12/18 05:43:52;;;;;;;43.28;16.90;;;;;;;;;;5011103;28;20085;-79
2020/12/18 05:46:20;;;;;;;44.42;16.98;;;;;;;;;;5009920;28;20144;-79
2020/12/18 05:49:07;;;;;;;43.20;17.15;;;;;;;;;;5010858;28;20085;-83
2020/12/18 05:51:35;;;;;;;43.78;18.67;;;;;;;;;;4999167;28;20084;-82
2020/12/18 05:54:22;;;;;;;39.92;15.90;;;;;;;;;;4994196;28;20055;-83
2020/12/18 05:56:52;;;;;;;40.90;16.85;;;;;;;;;;4992454;28;20105;-83
2020/12/18 05:59:21;;;;;;;45.53;17.70;;;;;;;;;;4992684;28;20082;-84
2020/12/18 06:01:49;;;;;;;35.50;16.55;;;;;;;;;;5026502;28;20545;-86
2020/12/18 06:04:17;;;;;;;41.60;17.60;;;;;;;;;;5032529;28;20494;-84
2020/12/18 06:06:54;;;;;;;48.20;17.65;;;;;;;;;;5032624;28;20056;-85
2020/12/18 06:09:26;;;;;;;42.03;16.92;;;;;;;;;;5032584;28;20049;-87
2020/12/18 06:11:53;;;;;;;37.42;16.50;;;;;;;;;;5033190;28;20544;-86
2020/12/18 06:14:22;;;;;;;37.63;17.00;;;;;;;;;;5036034;28;20046;-86
2020/12/18 06:16:51;;;;;;;39.45;19.27;;;;;;;;;;5037189;28;20045;-91
2020/12/18 06:19:31;;;;;;;47.63;17.67;;;;;;;;;;5018175;28;20075;-86
2020/12/18 06:21:59;;;;;;;40.63;17.83;;;;;;;;;;4999099;28;20052;-86
2020/12/18 06:24:41;;;;;;;38.17;16.00;;;;;;;;;;4999599;28;20905;-87
2020/12/18 06:27:12;;;;;;;34.15;15.55;;;;;;;;;;4997295;28;20077;-89
2020/12/18 06:29:40;;;;;;;47.50;17.27;;;;;;;;;;5009226;28;20491;-81
2020/12/18 06:32:20;;;;;;;37.38;16.30;;;;;;;;;;5012767;28;20468;-84
2020/12/18 06:34:48;;;;;;;42.70;16.45;;;;;;;;;;5017316;28;20054;-94
2020/12/18 06:37:41;;;;;;;41.80;15.95;;;;;;;;;;5004172;28;20100;-85
2020/12/18 06:40:28;;;;;;;48.35;16.55;;;;;;;;;;5000963;28;20072;-87
2020/12/18 06:42:56;;;;;;;33.22;15.55;;;;;;;;;;4996593;28;20045;-82
2020/12/18 06:45:23;;;;;;;43.55;16.00;;;;;;;;;;4995156;28;20085;-83
2020/12/18 06:47:59;;;;;;;42.83;15.52;;;;;;;;;;5012543;28;20502;-84
2020/12/18 06:50:33;;;;;;;39.50;16.13;;;;;;;;;;5011674;28;20065;-83
2020/12/18 06:53:16;;;;;;;44.73;15.80;;;;;;;;;;5035524;28;20072;-83
2020/12/18 06:55:42;;;;;;;33.45;14.93;;;;;;;;;;5036182;28;20071;-85
2020/12/18 06:58:09;;;;;;;39.63;15.32;;;;;;;;;;5035746;28;20443;-84
2020/12/18 07:00:37;;;;;;;33.45;15.02;;;;;;;;;;5023859;28;20045;-84
2020/12/18 07:03:04;;;;;;;49.63;16.85;;;;;;;;;;5035814;28;20049;-84
2020/12/18 07:05:32;;;;;;;38.95;15.85;;;;;;;;;;5035420;28;20549;-84
2020/12/18 07:08:00;;;;;;;43.55;15.00;;;;;;;;;;5035483;28;20531;-84
2020/12/18 07:10:35;;;;;;;38.30;16.00;;;;;;;;;;5035285;28;20077;-84
2020/12/18 07:13:02;;;;;;;36.15;15.43;;;;;;;;;;5029104;28;20104;-83
2020/12/18 07:15:46;;;;;;;38.90;16.63;;;;;;;;;;4999353;28;20042;-84
2020/12/18 07:18:32;;;;;;;37.65;15.60;;;;;;;;;;5003668;28;20089;-81
2020/12/18 07:21:09;;;;;;;35.33;15.25;;;;;;;;;;5012227;28;20046;-84
2020/12/18 07:23:38;;;;;;;40.33;15.82;;;;;;;;;;5008445;28;20086;-84
2020/12/18 07:26:09;;;;;;;35.15;14.25;;;;;;;;;;5015135;28;20069;-85
2020/12/18 07:28:37;;;;;;;36.47;16.13;;;;;;;;;;5015544;28;20100;-84
2020/12/18 07:31:06;;;;;;;43.53;15.05;;;;;;;;;;5016291;28;20077;-84
2020/12/18 07:33:40;;;;;;;40.13;15.80;;;;;;;;;;5016270;28;20046;-84
2020/12/18 07:36:07;;;;;;;45.50;15.95;;;;;;;;;;5021283;28;20404;-84
2020/12/18 07:38:34;;;;;;;34.88;14.98;;;;;;;;;;5016623;28;20050;-84
2020/12/18 07:41:08;;;;;;;38.95;15.20;;;;;;;;;;5016292;28;20050;-84
2020/12/18 07:43:37;;;;;;;35.58;14.68;;;;;;;;;;5015414;28;20053;-84
2020/12/18 07:46:08;;;;;;;34.92;14.52;;;;;;;;;;5014349;28;20062;-85
2020/12/18 07:48:36;;;;;;;40.85;16.27;;;;;;;;;;5017650;28;20073;-84
2020/12/18 07:51:19;;;;;;;39.33;14.88;;;;;;;;;;5013027;28;20066;-83
2020/12/18 07:53:47;;;;;;;40.78;15.30;;;;;;;;;;5015029;28;20077;-83
2020/12/18 07:56:16;;;;;;;38.88;15.15;;;;;;;;;;5029837;28;20077;-80
2020/12/18 07:58:53;;;;;;;33.63;13.85;;;;;;;;;;5032882;28;20108;-85
2020/12/18 08:01:24;;;;;;;40.53;14.52;;;;;;;;;;5035095;28;20049;-84
2020/12/18 08:03:58;;;;;;;34.55;13.40;;;;;;;;;;5029275;28;20119;-87
2020/12/18 08:06:43;;;;;;;33.95;15.02;;;;;;;;;;5018633;28;20050;-87
2020/12/18 08:09:13;;;;;;;41.65;14.68;;;;;;;;;;5001861;28;20056;-86
2020/12/18 08:12:16;;;;;;;36.70;14.25;;;;;;;;;;5004646;28;20471;-90
2020/12/18 08:15:15;;;;;;;30.30;14.02;;;;;;;;;;5020334;28;20053;-90
2020/12/18 08:17:45;;;;;;;37.15;14.02;;;;;;;;;;5038473;28;20049;-87
2020/12/18 08:20:14;;;;;;;46.58;15.35;;;;;;;;;;5034516;28;20045;-83
2020/12/18 08:22:45;;;;;;;34.40;14.43;;;;;;;;;;5035950;28;20434;-83
2020/12/18 08:25:13;;;;;;;35.17;14.68;;;;;;;;;;5015872;28;20058;-86
2020/12/18 08:28:06;;;;;;;42.95;14.25;;;;;;;;;;5030204;28;20045;-91
2020/12/18 08:30:34;;;;;;;31.70;14.02;;;;;;;;;;5026571;28;20045;-93
2020/12/18 08:33:02;;;;;;;40.28;15.38;;;;;;;;;;5017411;28;20049;-86
2020/12/18 08:35:29;;;;;;;36.00;13.85;;;;;;;;;;5031236;28;20109;-88
2020/12/18 08:38:08;;;;;;;30.85;13.32;;;;;;;;;;5036169;28;20054;-84
2020/12/18 08:40:39;;;;;;;25.75;12.40;;;;;;;;;;5018043;28;20074;-83
2020/12/18 08:43:06;;;;;;;34.63;13.23;;;;;;;;;;5028039;28;20046;-80
2020/12/18 08:45:41;;;;;;;26.00;11.35;;;;;;;;;;5029847;28;20060;-81
2020/12/18 08:48:08;;;;;;;27.63;12.68;;;;;;;;;;5022364;28;20057;-81
2020/12/18 08:50:35;;;;;;;29.38;11.63;;;;;;;;;;5014157;28;20078;-80
2020/12/18 08:53:09;;;;;;;22.30;11.20;;;;;;;;;;5024160;28;20076;-81
2020/12/18 08:55:38;;;;;;;34.67;12.88;;;;;;;;;;5033808;28;20056;-80
2020/12/18 08:58:12;;;;;;;33.10;12.05;;;;;;;;;;4994677;28;20050;-81
2020/12/18 09:00:40;;;;;;;24.65;11.30;;;;;;;;;;5004107;28;20445;-81
2020/12/18 09:03:06;;;;;;;29.48;11.25;;;;;;;;;;5032439;28;20522;-81
2020/12/18 09:05:34;;;;;;;27.48;12.20;;;;;;;;;;5028545;28;20054;-81
2020/12/18 09:08:02;;;;;;;27.77;11.48;;;;;;;;;;5014120;28;20062;-81
2020/12/18 09:10:30;;;;;;;25.67;11.57;;;;;;;;;;5032234;28;20077;-81
2020/12/18 09:12:58;;;;;;;24.75;12.93;;;;;;;;;;5015358;28;20149;-81
2020/12/18 09:15:26;;;;;;;25.00;11.63;;;;;;;;;;4995312;28;20088;-81
2020/12/18 09:18:09;;;;;;;28.42;12.02;;;;;;;;;;5013628;28;20046;-82
2020/12/18 09:20:47;;;;;;;28.52;11.82;;;;;;;;;;4998004;28;20140;-82
2020/12/18 09:23:17;;;;;;;25.52;11.50;;;;;;;;;;5033625;28;20107;-82
2020/12/18 09:25:48;;;;;;;25.90;10.57;;;;;;;;;;5025958;28;20140;-82
2020/12/18 09:28:19;;;;;;;25.75;10.95;;;;;;;;;;5003968;28;20054;-79
2020/12/18 09:31:06;;;;;;;28.65;10.98;;;;;;;;;;5015216;28;20053;-79
2020/12/18 09:33:41;;;;;;;24.05;11.00;;;;;;;;;;5015065;28;20056;-79
2020/12/18 09:36:13;;;;;;;26.23;10.93;;;;;;;;;;5033455;28;20490;-79
2020/12/18 09:38:42;;;;;;;24.83;11.75;;;;;;;;;;5015232;28;20577;-79
2020/12/18 09:41:37;;;;;;;18.48;9.48;;;;;;;;;;5010690;28;20119;-79
2020/12/18 09:44:05;;;;;;;20.35;10.10;;;;;;;;;;4994867;28;20057;-80
2020/12/18 09:47:06;;;;;;;19.90;10.10;;;;;;;;;;5030416;28;20045;-80
2020/12/18 09:50:01;;;;;;;25.02;9.85;;;;;;;;;;5031710;28;20057;-79
2020/12/18 09:52:32;;;;;;;19.88;9.02;;;;;;;;;;5015304;28;20167;-80
2020/12/18 09:55:00;;;;;;;25.20;9.73;;;;;;;;;;5019990;28;20053;-79
2020/12/18 09:57:32;;;;;;;20.67;9.25;;;;;;;;;;5018692;28;20092;-79
2020/12/18 10:00:06;;;;;;;28.30;14.98;;;;;;;;;;5021034;28;20046;-79
2020/12/18 10:09:19;;;;;;;24.05;9.07;;;;;;;;;;5020504;28;20048;-79
2020/12/18 10:11:48;;;;;;;25.67;9.48;;;;;;;;;;5019900;28;20505;-79
2020/12/18 10:14:19;;;;;;;22.65;9.13;;;;;;;;;;5031576;28;20128;-79
2020/12/18 10:16:49;;;;;;;19.63;8.75;;;;;;;;;;5030322;28;20053;-79
2020/12/18 10:19:18;;;;;;;17.88;8.60;;;;;;;;;;5032039;28;20529;-79
2020/12/18 10:21:48;;;;;;;17.05;9.68;;;;;;;;;;5031306;28;20068;-80
2020/12/18 10:24:15;;;;;;;23.08;8.27;;;;;;;;;;5030493;28;20410;-80
2020/12/18 10:26:55;;;;;;;19.42;8.57;;;;;;;;;;5031394;28;20128;-81
2020/12/18 10:29:26;;;;;;;18.15;8.25;;;;;;;;;;5030997;28;20049;-80
2020/12/18 10:31:57;;;;;;;13.38;7.90;;;;;;;;;;5030148;28;20085;-80
2020/12/18 10:34:24;;;;;;;17.05;8.65;;;;;;;;;;5032226;28;20406;-80
2020/12/18 10:36:53;;;;;;;15.80;7.40;;;;;;;;;;5030720;28;20099;-79
2020/12/18 10:39:21;;;;;;;19.40;7.97;;;;;;;;;;5032047;28;20124;-80
2020/12/18 10:41:54;;;;;;;21.05;9.48;;;;;;;;;;5031162;28;20577;-79
2020/12/18 10:44:21;;;;;;;22.33;8.10;;;;;;;;;;5030884;28;20045;-79
2020/12/18 10:46:51;;;;;;;20.95;7.35;;;;;;;;;;5031978;28;20136;-79
2020/12/18 10:49:18;;;;;;;17.00;7.53;;;;;;;;;;5030595;28;20140;-82
2020/12/18 10:51:47;;;;;;;18.00;6.88;;;;;;;;;;5020957;28;20387;-80
2020/12/18 10:54:13;;;;;;;17.27;7.35;;;;;;;;;;5022001;28;20446;-79
2020/12/18 10:56:50;;;;;;;15.68;7.25;;;;;;;;;;5027246;28;20463;-80
2020/12/18 10:59:23;;;;;;;15.52;7.43;;;;;;;;;;5012404;28;20050;-81
2020/12/18 11:01:57;;;;;;;10.82;6.35;;;;;;;;;;5011695;28;20089;-80
2020/12/18 11:04:25;;;;;;;14.07;6.82;;;;;;;;;;5012549;28;20060;-81
2020/12/18 11:06:57;;;;;;;20.70;7.60;;;;;;;;;;5027458;28;20712;-81
2020/12/18 11:09:33;;;;;;;16.08;6.53;;;;;;;;;;5012376;28;20133;-81
2020/12/18 11:12:08;;;;;;;14.40;6.43;;;;;;;;;;5027649;28;20085;-84
2020/12/18 11:14:35;;;;;;;10.73;6.05;;;;;;;;;;5027179;28;20482;-84
2020/12/18 11:17:04;;;;;;;15.82;7.20;;;;;;;;;;5022396;28;20052;-82
2020/12/18 11:19:31;;;;;;;11.85;5.70;;;;;;;;;;5011566;28;20057;-82
2020/12/18 11:22:00;;;;;;;18.77;6.55;;;;;;;;;;5022268;28;20080;-83
2020/12/18 11:24:27;;;;;;;16.95;5.50;;;;;;;;;;5030987;28;20521;-84
2020/12/18 11:26:58;;;;;;;9.27;4.97;;;;;;;;;;5018377;28;20054;-83
2020/12/18 11:29:25;;;;;;;17.08;5.90;;;;;;;;;;5012590;28;20077;-83
2020/12/18 11:31:54;;;;;;;15.48;5.07;;;;;;;;;;5020941;28;20064;-83
2020/12/18 11:34:28;;;;;;;14.07;5.28;;;;;;;;;;5020178;28;20056;-79
2020/12/18 11:36:56;;;;;;;9.73;5.25;;;;;;;;;;5029257;28;20053;-85
2020/12/18 11:39:26;;;;;;;13.68;4.95;;;;;;;;;;5034193;28;20049;-87
2020/12/18 11:41:55;;;;;;;11.13;4.95;;;;;;;;;;5035647;28;20085;-87
2020/12/18 11:44:41;;;;;;;12.65;4.95;;;;;;;;;;5035854;28;20045;-83
2020/12/18 11:47:27;;;;;;;34.13;6.50;;;;;;;;;;5038757;28;20544;-85
2020/12/18 11:50:23;;;;;;;9.43;4.78;;;;;;;;;;5014290;28;20057;-84
2020/12/18 11:53:20;;;;;;;20.20;6.15;;;;;;;;;;4961266;28;20132;-82
2020/12/18 11:55:53;;;;;;;24.83;4.38;;;;;;;;;;4999137;28;20499;-83
2020/12/18 11:58:39;;;;;;;;;;;;;;;;;;;;;
2020/12/18 12:01:08;;;;;;;14.15;4.78;;;;;;;;;;5034857;28;20085;-82
2020/12/18 12:03:35;;;;;;;11.75;4.68;;;;;;;;;;5034450;28;20056;-82
2020/12/18 12:06:08;;;;;;;18.73;5.45;;;;;;;;;;5033292;28;20049;-82
2020/12/18 12:08:35;;;;;;;11.73;4.40;;;;;;;;;;5033295;28;20065;-82
2020/12/18 12:11:12;;;;;;;16.13;5.45;;;;;;;;;;5029418;28;20453;-83
2020/12/18 12:13:40;;;;;;;13.90;4.85;;;;;;;;;;5016629;28;20622;-82
2020/12/18 12:16:09;;;;;;;11.90;4.88;;;;;;;;;;4998477;28;20057;-82
2020/12/18 12:18:44;;;;;;;15.77;4.57;;;;;;;;;;5015510;28;20655;-79
2020/12/18 12:21:11;;;;;;;13.67;5.10;;;;;;;;;;5013572;28;20061;-80
2020/12/18 12:23:40;;;;;;;9.65;4.68;;;;;;;;;;5036077;28;20291;-80
2020/12/18 12:26:11;;;;;;;11.65;4.45;;;;;;;;;;5019761;28;20108;-80
2020/12/18 12:28:38;;;;;;;13.65;5.25;;;;;;;;;;4997737;28;20054;-80
2020/12/18 12:31:06;;;;;;;11.45;4.15;;;;;;;;;;5009204;28;20048;-82
2020/12/18 12:33:32;;;;;;;9.00;4.20;;;;;;;;;;5033128;28;20169;-80
2020/12/18 12:36:00;;;;;;;13.60;4.47;;;;;;;;;;5021265;28;20053;-83
2020/12/18 12:38:34;;;;;;;10.52;4.18;;;;;;;;;;5015952;28;20152;-81
2020/12/18 12:41:01;;;;;;;13.68;4.53;;;;;;;;;;5025839;28;20053;-81
2020/12/18 12:43:29;;;;;;;12.20;5.05;;;;;;;;;;5034337;28;20179;-81
2020/12/18 12:45:57;;;;;;;11.90;5.00;;;;;;;;;;5033374;28;20445;-80
2020/12/18 12:48:24;;;;;;;11.57;5.10;;;;;;;;;;5032896;28;20136;-80
2020/12/18 12:50:51;;;;;;;15.88;5.30;;;;;;;;;;5031204;28;20438;-86
2020/12/18 12:53:18;;;;;;;16.52;4.30;;;;;;;;;;5031523;28;20441;-81
2020/12/18 12:55:49;;;;;;;11.00;5.40;;;;;;;;;;5034806;28;20052;-84
2020/12/18 12:58:17;;;;;;;12.70;5.35;;;;;;;;;;5027089;28;20053;-86
2020/12/18 13:00:46;;;;;;;11.73;4.40;;;;;;;;;;5001340;28;20133;-81
2020/12/18 13:03:13;;;;;;;8.75;4.47;;;;;;;;;;5036629;28;20045;-83
2020/12/18 13:05:44;;;;;;;18.35;4.78;;;;;;;;;;5033206;28;20656;-90
2020/12/18 13:08:12;;;;;;;15.95;5.13;;;;;;;;;;4998623;28;20048;-76
2020/12/18 13:10:39;;;;;;;13.88;4.35;;;;;;;;;;5021115;28;20092;-79
2020/12/18 13:13:10;;;;;;;13.65;4.28;;;;;;;;;;5011451;28;20527;-80
2020/12/18 13:15:45;;;;;;;18.65;6.13;;;;;;;;;;5019655;28;20783;-80
2020/12/18 13:18:15;;;;;;;17.42;4.47;;;;;;;;;;5032906;28;20131;-83
2020/12/18 13:20:43;;;;;;;9.10;4.07;;;;;;;;;;5024564;28;20121;-84
2020/12/18 13:23:12;;;;;;;12.40;4.30;;;;;;;;;;4996832;28;20042;-77
2020/12/18 13:25:39;;;;;;;14.65;4.55;;;;;;;;;;5017007;28;20108;-79
2020/12/18 13:28:08;;;;;;;10.23;5.03;;;;;;;;;;5019390;28;20053;-79
2020/12/18 13:30:39;;;;;;;18.60;5.70;;;;;;;;;;5018495;28;20101;-82
2020/12/18 13:33:10;;;;;;;8.70;4.50;;;;;;;;;;5014936;28;20053;-80
2020/12/18 13:35:45;;;;;;;13.20;5.47;;;;;;;;;;5012079;28;20053;-81
2020/12/18 13:38:18;;;;;;;12.30;5.25;;;;;;;;;;5001898;28;20042;-88
2020/12/18 13:40:46;;;;;;;16.00;5.57;;;;;;;;;;5002250;28;20053;-89
2020/12/18 13:43:14;;;;;;;18.65;5.15;;;;;;;;;;4999489;28;20164;-81
2020/12/18 13:45:52;;;;;;;11.48;5.15;;;;;;;;;;5019712;28;20497;-81
2020/12/18 13:48:21;;;;;;;14.80;6.25;;;;;;;;;;5032534;28;20095;-80
2020/12/18 13:50:49;;;;;;;17.98;5.40;;;;;;;;;;5032278;28;20049;-81
2020/12/18 13:53:17;;;;;;;13.75;4.63;;;;;;;;;;5032318;28;20053;-82
2020/12/18 13:55:49;;;;;;;15.63;4.68;;;;;;;;;;5028447;28;20046;-80
2020/12/18 13:58:19;;;;;;;16.92;7.00;;;;;;;;;;5014350;28;20081;-80
2020/12/18 14:00:46;;;;;;;15.50;4.80;;;;;;;;;;5009182;28;20173;-82
2020/12/18 14:03:14;;;;;;;13.13;5.57;;;;;;;;;;5019370;28;20046;-82
2020/12/18 14:05:46;;;;;;;17.38;5.60;;;;;;;;;;5015841;28;20042;-81
2020/12/18 14:08:15;;;;;;;11.75;4.90;;;;;;;;;;5000843;28;20045;-89
2020/12/18 14:10:42;;;;;;;14.90;5.25;;;;;;;;;;5014855;28;20049;-81
2020/12/18 14:13:12;;;;;;;12.93;5.20;;;;;;;;;;5027548;28;20053;-89
2020/12/18 14:15:48;;;;;;;13.57;5.05;;;;;;;;;;5033571;28;20060;-89
2020/12/18 14:18:39;;;;;;;14.77;5.18;;;;;;;;;;5015771;28;20081;-88
2020/12/18 14:21:10;;;;;;;10.93;5.35;;;;;;;;;;5019393;28;20066;-81
2020/12/18 14:23:46;;;;;;;13.27;5.50;;;;;;;;;;5007106;28;20053;-83
2020/12/18 14:26:14;;;;;;;17.02;5.03;;;;;;;;;;5014375;28;20719;-83
2020/12/18 14:28:53;;;;;;;17.23;5.57;;;;;;;;;;5021971;28;20057;-83
2020/12/18 14:31:21;;;;;;;9.82;4.20;;;;;;;;;;5009973;28;20092;-82
2020/12/18 14:33:52;;;;;;;11.00;5.07;;;;;;;;;;5035028;28;20558;-85
2020/12/18 14:36:20;;;;;;;12.13;4.43;;;;;;;;;;5024225;28;20045;-85
2020/12/18 14:38:48;;;;;;;13.45;4.60;;;;;;;;;;4997440;28;20045;-86
2020/12/18 14:41:16;;;;;;;9.95;4.88;;;;;;;;;;5009603;28;20049;-86
2020/12/18 14:43:52;;;;;;;11.82;4.25;;;;;;;;;;5035119;28;20057;-86
2020/12/18 14:46:20;;;;;;;14.52;5.05;;;;;;;;;;5021769;28;20057;-86
2020/12/18 14:48:50;;;;;;;10.18;4.50;;;;;;;;;;4997575;28;20108;-85